HTKA

Kigoma Airport

Airport
ICAO code
HTKA
IATA Code
TKQ
Summary
ICAO Region
AFI
ICAO Territory
Location

Ujiji, Kigoma Region

Serving
Kigoma
Elevation
2700 ft
Coordinates
4° 53' 10" S , 29° 40' 15" E
KCC
Aw
Metar
Observation
HTKA 130500Z 00000KT 9999 FEW017 SCT070 19/14 Q1015 NOSIG
Station
Kigoma
Date/Time
2022-08-13 05:00:00
Wind direction
Wind speed
00 kts
Lowest cloud amount
few clouds
Temperature
19°C
Dew point
14°C
Humidity
72%
QNH
1015 hPa
Weather condition
n/a

Kigoma Airport is an airport in western Tanzania serving Kigoma.

Climatology

Tropical Savanna climate (Köppen climate classification Aw)

Runways

Designator Length Width Surface Rops
16/34 1767 0 UNK No/No

Airport map

Aerial View

SKYbrary Partners:

Safety knowledge contributed by: